Time;durP1;ratioP1;P1;durP2;ratioP2;P2;SDS_P1;SDS_P2;PMS_P1;PMS_P2;Temp;Humidity;BMP_temperature;BMP_pressure;BME280_temperature;BME280_humidity;BME280_pressure;Samples;Min_cycle;Max_cycle;Signal;HPM_P1;HPM_P2
2022/08/30 00:03:27;;;;;;;7.45;2.70;;;19.80;66.30;;;;;;5070197;28;20428;-63
2022/08/30 00:05:53;;;;;;;7.22;2.83;;;19.80;66.40;;;;;;5092648;28;20111;-64
2022/08/30 00:08:19;;;;;;;6.30;2.67;;;19.80;66.50;;;;;;5092905;28;20028;-64
2022/08/30 00:10:45;;;;;;;5.75;2.78;;;19.70;66.60;;;;;;5093329;28;20334;-62
2022/08/30 00:13:12;;;;;;;6.45;2.85;;;19.70;66.70;;;;;;5093316;28;20043;-62
2022/08/30 00:15:40;;;;;;;6.07;2.78;;;19.70;66.80;;;;;;5090056;28;20024;-63
2022/08/30 00:18:07;;;;;;;6.45;3.15;;;19.60;66.90;;;;;;5093506;28;20028;-63
2022/08/30 00:20:33;;;;;;;8.23;3.17;;;19.60;66.90;;;;;;5075628;28;20505;-63
2022/08/30 00:22:59;;;;;;;6.97;2.95;;;19.60;67.00;;;;;;5074648;28;20110;-62
2022/08/30 00:25:25;;;;;;;6.40;3.10;;;19.60;67.00;;;;;;5074792;28;20107;-63
2022/08/30 00:27:52;;;;;;;8.25;3.00;;;19.60;67.10;;;;;;5094291;28;20039;-64
2022/08/30 00:30:19;;;;;;;6.53;3.13;;;19.60;67.20;;;;;;5079450;28;20028;-63
2022/08/30 00:32:44;;;;;;;6.32;2.80;;;19.60;67.30;;;;;;5086009;28;20024;-63
2022/08/30 00:35:13;;;;;;;7.53;2.90;;;19.60;67.40;;;;;;5091296;28;20034;-63
2022/08/30 00:37:39;;;;;;;7.18;3.20;;;19.50;67.40;;;;;;5087377;28;20172;-65
2022/08/30 00:40:08;;;;;;;7.43;3.22;;;19.50;67.40;;;;;;5081418;28;20458;-63
2022/08/30 00:42:34;;;;;;;7.22;3.53;;;19.50;67.60;;;;;;5088414;28;20368;-63
2022/08/30 00:45:08;;;;;;;7.30;3.33;;;19.50;67.60;;;;;;5082819;28;20028;-62
2022/08/30 00:47:34;;;;;;;7.88;3.42;;;19.50;67.70;;;;;;5083287;28;20051;-63
2022/08/30 00:50:00;;;;;;;7.30;3.55;;;19.40;67.70;;;;;;5075611;28;20453;-63
2022/08/30 00:52:26;;;;;;;7.63;3.65;;;19.40;67.80;;;;;;5079586;28;20032;-63
2022/08/30 00:54:52;;;;;;;6.90;3.50;;;19.40;67.80;;;;;;5080080;28;20036;-62
2022/08/30 00:57:18;;;;;;;7.40;3.42;;;19.40;67.90;;;;;;5094081;28;20123;-63
2022/08/30 00:59:48;;;;;;;6.95;3.63;;;19.40;68.00;;;;;;5071637;28;20036;-63
2022/08/30 01:02:17;;;;;;;6.25;3.30;;;19.40;68.10;;;;;;5078306;28;20024;-62
2022/08/30 01:04:44;;;;;;;6.07;3.17;;;19.40;68.10;;;;;;5094271;28;20024;-62
2022/08/30 01:07:10;;;;;;;6.97;3.58;;;19.40;68.20;;;;;;5095294;28;20464;-62
2022/08/30 01:09:36;;;;;;;9.95;4.32;;;19.30;68.20;;;;;;5085572;28;20027;-62
2022/08/30 01:12:03;;;;;;;6.78;3.38;;;19.40;68.30;;;;;;5087497;28;20457;-62
2022/08/30 01:14:32;;;;;;;7.55;4.20;;;19.30;68.30;;;;;;5095296;28;20091;-63
2022/08/30 01:17:00;;;;;;;7.03;3.58;;;19.30;68.30;;;;;;5092434;28;20028;-63
2022/08/30 01:19:42;;;;;;;6.85;3.47;;;19.30;68.40;;;;;;5094261;28;20110;-62
2022/08/30 01:22:23;;;;;;;7.35;3.70;;;19.30;68.50;;;;;;5095926;28;20036;-63
2022/08/30 01:24:52;;;;;;;6.65;3.38;;;19.30;68.50;;;;;;5095498;28;20039;-63
2022/08/30 01:27:21;;;;;;;7.57;3.40;;;19.30;68.50;;;;;;5093158;28;20047;-62
2022/08/30 01:29:46;;;;;;;6.60;3.20;;;19.30;68.70;;;;;;5074711;28;20405;-62
2022/08/30 01:32:21;;;;;;;7.10;3.38;;;19.30;68.60;;;;;;5078628;28;20047;-63
2022/08/30 01:34:47;;;;;;;6.45;3.55;;;19.30;68.70;;;;;;5061035;28;20040;-63
2022/08/30 01:37:26;;;;;;;8.02;3.70;;;19.30;68.70;;;;;;5087518;28;20157;-63
2022/08/30 01:39:52;;;;;;;6.57;3.28;;;19.30;68.80;;;;;;5076503;28;20036;-63
2022/08/30 01:42:18;;;;;;;7.65;3.55;;;19.20;68.70;;;;;;5085835;28;20111;-63
2022/08/30 01:44:46;;;;;;;7.00;3.60;;;19.20;68.80;;;;;;5089397;28;20544;-63
2022/08/30 01:47:12;;;;;;;7.03;3.85;;;19.30;68.90;;;;;;5093745;28;20118;-63
2022/08/30 01:49:39;;;;;;;7.78;4.05;;;19.20;68.90;;;;;;5093431;28;20032;-63
2022/08/30 01:52:06;;;;;;;7.72;3.70;;;19.30;69.00;;;;;;5094514;28;20024;-63
2022/08/30 01:54:34;;;;;;;7.18;4.13;;;19.30;69.00;;;;;;5078042;28;20346;-62
2022/08/30 01:57:00;;;;;;;7.40;3.90;;;19.30;69.00;;;;;;5067658;28;20038;-63
2022/08/30 01:59:26;;;;;;;6.75;3.67;;;19.20;69.00;;;;;;5087914;28;20040;-63
2022/08/30 02:01:52;;;;;;;6.50;3.30;;;19.20;69.10;;;;;;5095262;28;20441;-63
2022/08/30 02:04:18;;;;;;;8.32;4.25;;;19.20;69.10;;;;;;5090081;28;20418;-63
2022/08/30 02:06:44;;;;;;;6.70;3.95;;;19.20;69.10;;;;;;5091858;28;20020;-63
2022/08/30 02:09:11;;;;;;;6.32;3.50;;;19.20;69.10;;;;;;5073820;28;20032;-63
2022/08/30 02:11:37;;;;;;;7.32;3.60;;;19.20;69.10;;;;;;5077217;28;20437;-63
2022/08/30 02:14:04;;;;;;;7.80;3.80;;;19.20;69.10;;;;;;5069431;28;20044;-63
2022/08/30 02:16:30;;;;;;;8.77;4.10;;;19.20;69.10;;;;;;5091902;28;20032;-63
2022/08/30 02:18:56;;;;;;;6.43;3.58;;;19.20;69.10;;;;;;5095737;28;20097;-63
2022/08/30 02:21:23;;;;;;;7.20;4.00;;;19.20;69.20;;;;;;5073916;28;20104;-63
2022/08/30 02:23:49;;;;;;;9.57;3.85;;;19.10;69.20;;;;;;5066632;28;20356;-63
2022/08/30 02:26:16;;;;;;;6.78;4.00;;;19.10;69.30;;;;;;5093936;28;20107;-64
2022/08/30 02:28:43;;;;;;;7.47;3.85;;;19.10;69.30;;;;;;5068734;28;20035;-64
2022/08/30 02:31:10;;;;;;;7.55;4.05;;;19.10;70.00;;;;;;5071013;28;20032;-63
2022/08/30 02:33:36;;;;;;;7.70;4.22;;;19.10;69.30;;;;;;5095719;28;20399;-63
2022/08/30 02:36:04;;;;;;;8.73;3.80;;;19.10;69.40;;;;;;5093644;28;20035;-63
2022/08/30 02:38:29;;;;;;;8.25;3.83;;;19.10;69.40;;;;;;5070839;28;20039;-63
2022/08/30 02:40:55;;;;;;;7.88;4.03;;;19.00;69.40;;;;;;5079371;28;20033;-63
2022/08/30 02:43:21;;;;;;;8.40;4.72;;;19.00;69.50;;;;;;5084382;28;20077;-63
2022/08/30 02:45:46;;;;;;;7.70;4.40;;;19.00;69.50;;;;;;5073406;28;20025;-63
2022/08/30 02:48:12;;;;;;;8.63;4.78;;;19.00;69.60;;;;;;5088060;28;20487;-63
2022/08/30 02:50:40;;;;;;;7.65;4.20;;;19.00;69.60;;;;;;5095797;28;20024;-63
2022/08/30 02:53:05;;;;;;;7.03;4.28;;;19.00;69.70;;;;;;5091919;28;20036;-63
2022/08/30 02:55:31;;;;;;;7.88;3.75;;;18.90;69.70;;;;;;5077085;28;20047;-63
2022/08/30 02:57:57;;;;;;;8.77;4.57;;;18.90;69.70;;;;;;5089241;28;20039;-62
2022/08/30 03:00:23;;;;;;;7.95;4.63;;;18.90;69.80;;;;;;5093040;28;20364;-63
2022/08/30 03:02:48;;;;;;;6.93;4.40;;;18.90;69.80;;;;;;5076483;28;20032;-63
2022/08/30 03:05:16;;;;;;;7.95;4.72;;;18.90;69.80;;;;;;5092607;28;20032;-63
2022/08/30 03:07:44;;;;;;;7.63;4.45;;;18.90;69.90;;;;;;5086805;28;20090;-63
2022/08/30 03:10:10;;;;;;;7.90;4.75;;;18.90;70.60;;;;;;5083265;28;20031;-63
2022/08/30 03:12:36;;;;;;;7.00;4.30;;;18.80;69.90;;;;;;5067683;28;20093;-63
2022/08/30 03:15:04;;;;;;;7.78;5.25;;;18.80;70.00;;;;;;5087623;28;20109;-63
2022/08/30 03:17:30;;;;;;;8.38;4.90;;;18.80;70.00;;;;;;5088815;28;20115;-63
2022/08/30 03:19:59;;;;;;;6.97;4.65;;;18.80;70.00;;;;;;5091289;28;20052;-63
2022/08/30 03:22:24;;;;;;;7.47;4.57;;;18.80;70.10;;;;;;5086762;28;20089;-62
2022/08/30 03:24:50;;;;;;;9.98;5.45;;;18.70;70.10;;;;;;5090047;28;20042;-63
2022/08/30 03:27:16;;;;;;;9.23;4.70;;;18.70;70.10;;;;;;5085837;28;20024;-63
2022/08/30 03:29:41;;;;;;;10.20;5.03;;;18.70;70.10;;;;;;5091298;28;20024;-63
2022/08/30 03:32:08;;;;;;;9.13;5.35;;;18.70;70.10;;;;;;5089797;28;20040;-63
2022/08/30 03:34:33;;;;;;;9.48;5.47;;;18.70;70.10;;;;;;5094720;28;20353;-63
2022/08/30 03:37:00;;;;;;;8.55;5.50;;;18.70;70.20;;;;;;5091327;28;20043;-63
2022/08/30 03:39:25;;;;;;;7.88;5.18;;;18.70;70.30;;;;;;5089491;28;20059;-63
2022/08/30 03:41:52;;;;;;;7.60;4.78;;;18.70;70.30;;;;;;5073686;28;20075;-63
2022/08/30 03:44:18;;;;;;;7.38;4.70;;;18.60;70.30;;;;;;5091851;28;20033;-63
2022/08/30 03:46:44;;;;;;;7.10;4.82;;;18.60;70.30;;;;;;5057083;28;20012;-64
2022/08/30 03:49:09;;;;;;;9.63;5.15;;;18.70;70.30;;;;;;5089499;28;20445;-62
2022/08/30 03:51:35;;;;;;;8.43;5.20;;;18.60;70.20;;;;;;5090021;28;20024;-63
2022/08/30 03:54:01;;;;;;;7.70;5.40;;;18.60;70.30;;;;;;5090583;28;20103;-63
2022/08/30 03:56:27;;;;;;;8.15;5.32;;;18.60;70.30;;;;;;5088792;28;20082;-63
2022/08/30 03:58:53;;;;;;;8.13;5.22;;;18.60;70.30;;;;;;5075040;28;20031;-63
2022/08/30 04:01:18;;;;;;;8.35;4.95;;;18.60;70.30;;;;;;5089226;28;20028;-63
2022/08/30 04:03:44;;;;;;;8.68;5.10;;;18.60;70.30;;;;;;5060401;28;20391;-61
2022/08/30 04:06:10;;;;;;;8.05;4.88;;;18.60;70.30;;;;;;5070000;28;20061;-62
2022/08/30 04:08:36;;;;;;;8.07;5.00;;;18.60;70.30;;;;;;5075190;28;20099;-62
2022/08/30 04:11:01;;;;;;;8.38;5.28;;;18.60;70.30;;;;;;5089596;28;20020;-63
2022/08/30 04:13:28;;;;;;;7.72;4.88;;;18.60;70.30;;;;;;5089556;28;20044;-62
2022/08/30 04:15:54;;;;;;;7.82;4.80;;;18.60;70.30;;;;;;5089065;28;20104;-63
2022/08/30 04:18:20;;;;;;;9.80;4.90;;;18.60;70.30;;;;;;5080603;28;20024;-63
2022/08/30 04:20:46;;;;;;;7.45;4.63;;;18.50;70.30;;;;;;5081272;28;20029;-63
2022/08/30 04:23:12;;;;;;;7.97;4.43;;;18.60;70.40;;;;;;5061569;28;20427;-62
2022/08/30 04:25:40;;;;;;;8.13;4.50;;;18.50;70.30;;;;;;5074424;28;20020;-62
2022/08/30 04:28:07;;;;;;;7.65;4.07;;;18.50;70.30;;;;;;5065351;28;20085;-63
2022/08/30 04:30:33;;;;;;;7.20;3.92;;;18.60;70.30;;;;;;5084176;28;20449;-62
2022/08/30 04:32:59;;;;;;;8.15;4.10;;;18.50;70.20;;;;;;5052963;28;20039;-63
2022/08/30 04:35:25;;;;;;;7.10;4.15;;;18.50;70.20;;;;;;5069270;28;20021;-62
2022/08/30 04:37:51;;;;;;;7.05;4.22;;;18.50;70.70;;;;;;5084331;28;20040;-62
2022/08/30 04:40:17;;;;;;;7.57;3.58;;;18.50;70.00;;;;;;5065970;28;20102;-62
2022/08/30 04:42:43;;;;;;;7.65;3.85;;;18.50;69.90;;;;;;5083689;28;20038;-64
2022/08/30 04:45:11;;;;;;;6.40;3.40;;;18.50;69.80;;;;;;5068278;28;20028;-64
2022/08/30 04:47:38;;;;;;;6.85;3.65;;;18.50;69.80;;;;;;5065696;28;20360;-62
2022/08/30 04:50:06;;;;;;;7.00;3.85;;;18.50;69.70;;;;;;5086239;28;20334;-62
2022/08/30 04:52:31;;;;;;;6.32;3.03;;;18.50;69.60;;;;;;5092125;28;20047;-63
2022/08/30 04:54:58;;;;;;;7.43;3.28;;;18.50;69.50;;;;;;5089672;28;20020;-63
2022/08/30 04:57:25;;;;;;;6.57;3.13;;;18.50;69.40;;;;;;5089705;28;20031;-63
2022/08/30 04:59:51;;;;;;;5.63;2.80;;;18.50;69.30;;;;;;5075370;28;20034;-64
2022/08/30 05:02:17;;;;;;;5.47;2.78;;;18.50;69.10;;;;;;5074138;28;20028;-63
2022/08/30 05:05:38;;;;;;;6.18;2.83;;;18.60;69.00;;;;;;5085164;28;20016;-63
2022/08/30 05:07:30;;;;;;;6.22;2.60;;;18.60;68.80;;;;;;5061673;28;20036;-63
2022/08/30 05:09:55;;;;;;;5.88;2.50;;;18.60;68.70;;;;;;5083827;28;20035;-63
2022/08/30 05:12:22;;;;;;;5.82;2.88;;;18.60;68.50;;;;;;5081315;28;20024;-63
2022/08/30 05:14:47;;;;;;;6.00;2.85;;;18.60;68.40;;;;;;5090563;28;20467;-62
2022/08/30 05:17:13;;;;;;;5.35;2.65;;;18.60;68.30;;;;;;5069121;28;20029;-63
2022/08/30 05:19:38;;;;;;;5.07;2.50;;;18.70;68.30;;;;;;5088146;28;20342;-63
2022/08/30 05:22:04;;;;;;;7.80;2.90;;;18.70;68.10;;;;;;5074506;28;20055;-63
2022/08/30 05:24:30;;;;;;;5.38;2.55;;;18.70;68.10;;;;;;5086228;28;20445;-63
2022/08/30 05:26:57;;;;;;;4.93;2.47;;;18.70;68.00;;;;;;5047120;28;20024;-63
2022/08/30 05:29:23;;;;;;;6.85;3.17;;;18.70;67.90;;;;;;5071414;28;20032;-62
2022/08/30 05:31:49;;;;;;;7.18;3.10;;;18.70;67.80;;;;;;5078655;28;20036;-62
2022/08/30 05:34:15;;;;;;;7.25;2.80;;;18.70;67.80;;;;;;5056722;28;20024;-63
2022/08/30 05:36:40;;;;;;;5.95;2.65;;;18.80;67.80;;;;;;5062731;28;20081;-63
2022/08/30 05:39:08;;;;;;;8.85;3.13;;;18.70;67.70;;;;;;5073792;28;20100;-63
2022/08/30 05:41:34;;;;;;;6.55;2.95;;;18.80;67.70;;;;;;5075440;28;20016;-63
2022/08/30 05:44:01;;;;;;;5.32;2.72;;;18.80;67.60;;;;;;5072389;28;22422;-63
2022/08/30 05:46:31;;;;;;;6.13;3.42;;;18.80;67.60;;;;;;5084146;28;20445;-63
2022/08/30 05:49:01;;;;;;;26.38;4.63;;;18.80;67.60;;;;;;5075337;28;20044;-63
2022/08/30 05:51:29;;;;;;;7.60;3.35;;;18.90;67.60;;;;;;5069557;28;20357;-63
2022/08/30 05:53:57;;;;;;;7.75;3.55;;;18.90;67.50;;;;;;5093475;28;20036;-64
2022/08/30 05:56:30;;;;;;;6.70;2.90;;;18.90;67.30;;;;;;5093422;28;20043;-63
2022/08/30 05:58:56;;;;;;;5.78;2.55;;;18.90;67.10;;;;;;5089099;28;20044;-63
2022/08/30 06:01:25;;;;;;;5.60;2.83;;;19.00;67.10;;;;;;5078682;28;20028;-63
2022/08/30 06:03:52;;;;;;;5.78;2.72;;;19.00;67.10;;;;;;5062280;28;20032;-63
2022/08/30 06:06:18;;;;;;;6.82;3.10;;;19.00;66.90;;;;;;5096863;28;20357;-63
2022/08/30 06:08:46;;;;;;;5.43;2.53;;;19.10;66.80;;;;;;5096207;28;20032;-62
2022/08/30 06:11:12;;;;;;;6.35;2.58;;;19.10;66.60;;;;;;5091322;28;20024;-62
2022/08/30 06:13:38;;;;;;;5.38;2.53;;;19.10;66.40;;;;;;5078733;28;20345;-62
2022/08/30 06:16:04;;;;;;;6.35;2.50;;;19.20;66.20;;;;;;5083621;28;20024;-62
2022/08/30 06:18:30;;;;;;;4.93;1.98;;;19.20;66.00;;;;;;5076472;28;20039;-62
2022/08/30 06:20:56;;;;;;;6.35;2.15;;;19.50;65.60;;;;;;5078726;28;20039;-63
2022/08/30 06:23:22;;;;;;;7.70;2.80;;;20.20;64.30;;;;;;5061241;28;20028;-62
2022/08/30 06:25:48;;;;;;;5.97;2.22;;;21.00;62.50;;;;;;5096424;28;20036;-63
2022/08/30 06:28:13;;;;;;;2.65;1.63;;;21.70;60.80;;;;;;5061692;28;20345;-63
2022/08/30 06:30:41;;;;;;;4.70;1.90;;;22.40;59.30;;;;;;5078797;28;20039;-63
2022/08/30 06:33:08;;;;;;;5.22;1.80;;;22.90;58.20;;;;;;5074694;28;20032;-63
2022/08/30 06:35:34;;;;;;;4.18;1.90;;;23.10;57.50;;;;;;5096164;28;20043;-63
2022/08/30 06:38:00;;;;;;;3.97;1.75;;;23.10;57.20;;;;;;5075915;28;20141;-63
2022/08/30 06:40:25;;;;;;;4.00;2.00;;;23.00;57.30;;;;;;5091145;28;20031;-63
2022/08/30 06:42:51;;;;;;;5.75;1.90;;;22.90;57.30;;;;;;5095226;28;20365;-62
2022/08/30 06:45:19;;;;;;;4.32;1.85;;;22.70;57.30;;;;;;5087305;28;20366;-62
2022/08/30 06:47:45;;;;;;;8.25;1.90;;;22.60;57.40;;;;;;5085968;28;20436;-62
2022/08/30 06:50:12;;;;;;;5.22;2.17;;;22.40;57.40;;;;;;5069654;28;20043;-61
2022/08/30 06:52:40;;;;;;;4.70;1.60;;;22.40;57.30;;;;;;5086171;28;20035;-63
2022/08/30 06:55:06;;;;;;;5.57;2.08;;;22.30;57.20;;;;;;5084278;28;20360;-63
2022/08/30 06:57:31;;;;;;;4.93;2.10;;;22.30;57.30;;;;;;5073329;28;20028;-63
2022/08/30 06:59:57;;;;;;;6.28;2.08;;;22.30;57.10;;;;;;5059354;28;20043;-63
2022/08/30 07:02:24;;;;;;;6.15;2.03;;;22.30;56.80;;;;;;5089772;28;20081;-63
2022/08/30 07:04:50;;;;;;;3.17;1.73;;;22.30;56.80;;;;;;5091552;28;20356;-65
2022/08/30 07:07:16;;;;;;;5.05;2.00;;;22.30;56.70;;;;;;5073753;28;20060;-69
2022/08/30 07:09:43;;;;;;;5.40;1.70;;;22.30;56.50;;;;;;5087873;28;20050;-68
2022/08/30 07:12:12;;;;;;;4.25;1.83;;;22.40;56.30;;;;;;5081092;28;20139;-69
2022/08/30 07:14:39;;;;;;;4.55;1.90;;;22.50;56.10;;;;;;5080592;28;20361;-69
2022/08/30 07:18:49;;;;;;;6.13;1.70;;;22.50;56.00;;;;;;5082964;28;20166;-69
2022/08/30 07:19:53;;;;;;;5.30;1.92;;;22.60;55.60;;;;;;5077475;28;20025;-70
2022/08/30 07:22:18;;;;;;;4.80;1.83;;;22.70;55.50;;;;;;5075309;28;20028;-69
2022/08/30 07:24:45;;;;;;;4.45;1.80;;;22.70;55.30;;;;;;5069787;28;20364;-70
2022/08/30 07:27:11;;;;;;;4.78;1.80;;;22.80;55.20;;;;;;5086392;28;20509;-71
2022/08/30 07:29:37;;;;;;;4.10;1.60;;;22.90;55.00;;;;;;5077516;28;20035;-71
2022/08/30 07:32:03;;;;;;;4.80;1.60;;;23.00;54.80;;;;;;5083279;28;20349;-71
2022/08/30 07:34:28;;;;;;;4.57;1.52;;;23.00;54.50;;;;;;5067825;28;20393;-70
2022/08/30 07:36:54;;;;;;;3.40;1.60;;;23.10;54.30;;;;;;5073501;28;20052;-71
2022/08/30 07:39:20;;;;;;;5.35;2.20;;;23.20;54.00;;;;;;5074852;28;20028;-71
2022/08/30 07:41:47;;;;;;;4.68;1.40;;;23.30;53.60;;;;;;5089499;28;20081;-71
2022/08/30 07:44:13;;;;;;;2.45;1.17;;;23.40;53.40;;;;;;5075320;28;20445;-71
2022/08/30 07:46:40;;;;;;;3.67;1.50;;;23.50;53.00;;;;;;5088404;28;20028;-71
2022/08/30 07:49:08;;;;;;;3.60;1.45;;;23.50;52.80;;;;;;5090373;28;20107;-71
2022/08/30 07:51:34;;;;;;;4.28;1.50;;;23.60;52.60;;;;;;5055460;28;20031;-70
2022/08/30 07:54:00;;;;;;;3.97;1.50;;;23.80;52.50;;;;;;5080341;28;20107;-71
2022/08/30 07:56:26;;;;;;;3.80;1.48;;;23.90;52.30;;;;;;5076484;28;20108;-72
2022/08/30 07:58:52;;;;;;;5.80;1.90;;;24.00;51.90;;;;;;5067686;28;20814;-72
2022/08/30 08:01:19;;;;;;;2.78;1.25;;;24.10;51.60;;;;;;5076602;28;20031;-73
2022/08/30 08:03:46;;;;;;;4.05;1.42;;;24.40;51.40;;;;;;5075010;28;20051;-72
2022/08/30 08:06:14;;;;;;;4.88;1.67;;;24.50;50.90;;;;;;5091625;28;20456;-73
2022/08/30 08:08:41;;;;;;;4.00;1.42;;;24.60;50.50;;;;;;5074585;28;20028;-73
2022/08/30 08:11:22;;;;;;;5.25;1.42;;;24.70;50.20;;;;;;5094233;28;20024;-73
2022/08/30 08:13:48;;;;;;;;;;;24.80;49.90;;;;;;5068157;28;20056;-73
2022/08/30 08:16:14;;;;;;;3.78;1.23;;;24.90;50.00;;;;;;5076827;28;19991;-70
2022/08/30 08:18:40;;;;;;;3.38;1.10;;;24.90;49.80;;;;;;5076176;28;20103;-70
2022/08/30 08:21:06;;;;;;;2.60;1.05;;;24.90;49.30;;;;;;5093624;28;20400;-71
2022/08/30 08:23:31;;;;;;;4.18;1.40;;;24.90;49.00;;;;;;5075448;28;20123;-71
2022/08/30 08:25:58;;;;;;;4.40;1.40;;;25.00;48.70;;;;;;5073455;28;20024;-71
2022/08/30 08:28:24;;;;;;;2.60;1.30;;;25.10;48.40;;;;;;5093640;28;20104;-71
2022/08/30 08:30:50;;;;;;;3.00;1.20;;;25.10;48.20;;;;;;5081732;28;20497;-70
2022/08/30 08:33:17;;;;;;;5.18;1.45;;;25.30;48.10;;;;;;5071395;28;20032;-70
2022/08/30 08:35:42;;;;;;;4.18;1.02;;;25.30;47.80;;;;;;5074658;28;20032;-73
2022/08/30 08:38:09;;;;;;;4.85;1.35;;;25.40;47.70;;;;;;5076273;28;20028;-71
2022/08/30 08:40:54;;;;;;;2.78;1.10;;;25.50;47.40;;;;;;5054423;28;20029;-70
2022/08/30 08:43:23;;;;;;;3.03;1.25;;;25.60;47.00;;;;;;5086058;28;20032;-70
2022/08/30 08:46:07;;;;;;;3.55;1.38;;;25.70;46.80;;;;;;5077803;28;20040;-69
2022/08/30 08:48:40;;;;;;;3.13;1.10;;;25.80;46.70;;;;;;5082770;28;20033;-69
2022/08/30 08:54:10;;;;;;;4.88;1.40;;;25.90;46.10;;;;;;5081616;28;20048;-70
2022/08/30 08:56:36;;;;;;;3.33;1.30;;;25.90;46.10;;;;;;5089185;28;20123;-70
2022/08/30 08:59:05;;;;;;;3.42;1.15;;;25.80;46.10;;;;;;5071820;28;20427;-70
2022/08/30 09:01:32;;;;;;;4.50;1.50;;;25.90;45.90;;;;;;5074959;28;20036;-71
2022/08/30 09:04:02;;;;;;;3.47;1.30;;;26.00;45.80;;;;;;5060324;28;20016;-69
2022/08/30 09:06:48;;;;;;;2.42;1.08;;;26.10;45.60;;;;;;5091105;28;20049;-68
2022/08/30 09:09:14;;;;;;;4.03;1.45;;;26.20;45.20;;;;;;5095721;28;20016;-70
2022/08/30 09:11:46;;;;;;;3.97;1.42;;;26.30;45.20;;;;;;5097526;28;20440;-69
2022/08/30 09:14:30;;;;;;;2.63;1.20;;;26.30;44.80;;;;;;5093675;28;20060;-70
2022/08/30 09:17:11;;;;;;;4.28;1.52;;;26.30;44.60;;;;;;5092893;28;20051;-71
2022/08/30 09:19:42;;;;;;;2.55;1.10;;;26.20;44.30;;;;;;5074341;28;20034;-71
2022/08/30 09:22:13;;;;;;;3.65;1.60;;;26.20;44.20;;;;;;5077229;28;20336;-70
2022/08/30 09:24:43;;;;;;;2.92;1.30;;;26.20;44.00;;;;;;5075547;28;20094;-70
2022/08/30 09:27:17;;;;;;;3.92;1.50;;;26.20;43.80;;;;;;5094442;28;20031;-70
2022/08/30 09:29:55;;;;;;;3.15;1.40;;;26.20;43.70;;;;;;5077722;28;20023;-70
2022/08/30 09:32:26;;;;;;;3.28;1.30;;;26.30;43.70;;;;;;5097000;28;20020;-70
2022/08/30 09:34:52;;;;;;;4.70;1.25;;;26.30;43.50;;;;;;5091788;28;20357;-70
2022/08/30 09:37:35;;;;;;;3.20;1.25;;;26.20;43.40;;;;;;5091369;28;21852;-70
2022/08/30 09:40:23;;;;;;;3.25;1.45;;;26.20;43.40;;;;;;5086082;28;20029;-70
2022/08/30 09:43:15;;;;;;;3.25;1.50;;;26.20;43.40;;;;;;5070305;28;20032;-71
2022/08/30 09:45:45;;;;;;;3.25;1.10;;;26.30;43.10;;;;;;5092864;28;20028;-70
2022/08/30 09:48:30;;;;;;;4.60;1.58;;;26.30;43.20;;;;;;5097591;28;20043;-70
2022/08/30 09:51:13;;;;;;;3.97;1.30;;;26.30;43.20;;;;;;5045077;28;20113;-71
2022/08/30 09:54:08;;;;;;;4.13;1.45;;;26.40;43.40;;;;;;5075116;28;20028;-70
2022/08/30 09:57:05;;;;;;;3.40;1.40;;;26.50;43.40;;;;;;5089290;28;20024;-70
2022/08/30 09:59:47;;;;;;;4.10;1.42;;;26.50;43.30;;;;;;5083165;28;20035;-70
2022/08/30 10:02:59;;;;;;;3.78;1.50;;;26.50;43.30;;;;;;5092408;28;20043;-71
2022/08/30 10:05:42;;;;;;;5.35;1.40;;;26.60;43.00;;;;;;5006526;28;20049;-71
2022/08/30 10:08:21;;;;;;;4.57;1.55;;;26.70;42.90;;;;;;5012674;28;20034;-71
2022/08/30 10:10:56;;;;;;;5.28;1.23;;;26.70;42.50;;;;;;5032994;28;20134;-71
2022/08/30 10:13:22;;;;;;;3.88;1.63;;;26.80;42.70;;;;;;5016493;28;20071;-71
2022/08/30 10:15:54;;;;;;;3.03;1.15;;;26.80;42.50;;;;;;5032078;28;20497;-70
2022/08/30 10:18:48;;;;;;;4.32;1.48;;;26.90;42.40;;;;;;5033043;28;20072;-69
2022/08/30 10:21:27;;;;;;;2.42;1.20;;;26.90;42.00;;;;;;5030347;28;20121;-69
2022/08/30 10:24:21;;;;;;;3.20;1.17;;;27.00;42.00;;;;;;5000715;28;20022;-70
2022/08/30 10:26:58;;;;;;;3.53;1.15;;;27.10;42.10;;;;;;5012200;28;20459;-69
2022/08/30 10:29:30;;;;;;;5.32;1.52;;;27.20;41.90;;;;;;5013019;28;20036;-69
2022/08/30 10:32:28;;;;;;;4.28;1.40;;;27.20;41.60;;;;;;5034376;28;20470;-70
2022/08/30 10:35:06;;;;;;;2.78;1.10;;;27.30;41.50;;;;;;5007864;28;20118;-69
2022/08/30 10:37:38;;;;;;;5.78;1.75;;;27.30;41.10;;;;;;5034144;28;20037;-68
2022/08/30 10:43:17;;;;;;;2.88;1.10;;;27.40;41.20;;;;;;5076117;28;20062;-68
2022/08/30 10:45:45;;;;;;;2.35;1.20;;;27.40;40.90;;;;;;5076167;28;20123;-69
2022/08/30 10:48:40;;;;;;;2.97;1.30;;;27.40;41.00;;;;;;5084105;28;20109;-71
2022/08/30 10:51:13;;;;;;;3.35;1.08;;;27.50;40.70;;;;;;5062190;28;20133;-72
2022/08/30 10:53:58;;;;;;;4.90;1.50;;;27.50;40.50;;;;;;5069438;28;20020;-71
2022/08/30 10:56:28;;;;;;;4.00;1.13;;;27.50;40.50;;;;;;5086823;28;20379;-71
2022/08/30 10:58:57;;;;;;;2.95;1.05;;;27.50;40.40;;;;;;5090596;28;20028;-72
2022/08/30 11:01:58;;;;;;;3.92;1.40;;;27.40;40.30;;;;;;5089045;28;20386;-71
2022/08/30 11:04:32;;;;;;;3.20;0.85;;;27.40;40.00;;;;;;5087639;28;20047;-71
2022/08/30 11:07:29;;;;;;;3.40;1.25;;;27.40;40.10;;;;;;5053882;28;20024;-70
2022/08/30 11:10:13;;;;;;;2.38;1.00;;;27.50;40.20;;;;;;5069053;28;20047;-70
2022/08/30 11:12:58;;;;;;;2.97;1.23;;;27.60;40.10;;;;;;5070232;28;20453;-71
2022/08/30 11:15:29;;;;;;;3.33;1.30;;;27.70;40.10;;;;;;5087972;28;20028;-71
2022/08/30 11:18:09;;;;;;;4.88;1.40;;;27.70;39.90;;;;;;5085227;28;20119;-70
2022/08/30 11:20:47;;;;;;;2.88;1.17;;;27.80;39.90;;;;;;5076207;28;20136;-71
2022/08/30 11:23:34;;;;;;;3.63;1.13;;;27.80;39.50;;;;;;5080909;28;20039;-70
2022/08/30 11:26:10;;;;;;;3.47;1.35;;;27.80;39.40;;;;;;5085289;28;20028;-72
2022/08/30 11:28:35;;;;;;;4.60;1.40;;;27.80;39.40;;;;;;5085552;28;20060;-71
2022/08/30 11:31:37;;;;;;;3.70;1.20;;;27.80;39.40;;;;;;5070145;28;20132;-71
2022/08/30 11:34:05;;;;;;;2.90;1.20;;;27.80;39.30;;;;;;5069663;28;20044;-71
2022/08/30 11:36:31;;;;;;;3.83;1.42;;;27.80;39.50;;;;;;5072741;28;20035;-71
2022/08/30 11:39:40;;;;;;;3.33;1.50;;;27.80;39.40;;;;;;5087806;28;20044;-71
2022/08/30 11:42:26;;;;;;;3.67;1.17;;;27.80;39.30;;;;;;5077071;28;20036;-71
2022/08/30 11:44:52;;;;;;;2.22;1.10;;;27.80;39.20;;;;;;5090309;28;20085;-71
2022/08/30 11:47:37;;;;;;;3.35;1.17;;;27.80;39.30;;;;;;5088191;28;20024;-70
2022/08/30 11:50:12;;;;;;;3.05;1.25;;;27.90;39.20;;;;;;5094245;28;20413;-70
2022/08/30 11:53:05;;;;;;;3.58;1.05;;;27.90;39.20;;;;;;5095439;28;20417;-71
2022/08/30 11:55:48;;;;;;;2.72;1.15;;;27.90;39.10;;;;;;5057236;28;20031;-71
2022/08/30 11:58:26;;;;;;;8.32;1.30;;;27.80;39.10;;;;;;5094883;28;20024;-71
2022/08/30 12:01:30;;;;;;;4.60;1.55;;;27.80;38.80;;;;;;5077236;28;20120;-70
2022/08/30 12:04:11;;;;;;;2.97;1.33;;;27.80;38.80;;;;;;5062635;28;20028;-71
2022/08/30 12:06:39;;;;;;;4.72;1.33;;;27.70;38.80;;;;;;5095099;28;20024;-70
2022/08/30 12:09:31;;;;;;;3.67;1.67;;;27.70;38.80;;;;;;5094896;28;20035;-70
2022/08/30 12:12:25;;;;;;;3.10;1.38;;;27.70;39.50;;;;;;5094340;28;20066;-70
2022/08/30 12:14:56;;;;;;;5.63;1.55;;;27.70;38.70;;;;;;5061151;28;20135;-71
2022/08/30 12:20:44;;;;;;;3.40;1.25;;;27.50;38.60;;;;;;5076549;28;20452;-71
2022/08/30 12:23:29;;;;;;;3.72;1.17;;;27.40;38.50;;;;;;5063917;28;20479;-71
2022/08/30 12:26:10;;;;;;;2.03;0.90;;;27.30;38.70;;;;;;5094196;28;20032;-71
2022/08/30 12:28:36;;;;;;;2.72;1.00;;;27.30;38.90;;;;;;5075459;28;20042;-71
2022/08/30 12:31:14;;;;;;;2.33;1.10;;;27.20;39.00;;;;;;5093510;28;20020;-71
2022/08/30 12:33:49;;;;;;;3.03;1.17;;;27.20;39.10;;;;;;5076209;28;20043;-70
2022/08/30 12:36:39;;;;;;;2.80;1.25;;;27.10;39.20;;;;;;5078456;28;20036;-71
2022/08/30 12:39:14;;;;;;;3.85;1.52;;;27.10;39.00;;;;;;5080637;28;20478;-70
2022/08/30 12:41:41;;;;;;;3.67;1.40;;;27.10;39.20;;;;;;5080564;28;20032;-70
2022/08/30 12:44:17;;;;;;;3.78;1.58;;;27.00;39.20;;;;;;5098242;28;20039;-71
2022/08/30 12:46:47;;;;;;;3.92;1.20;;;26.90;39.00;;;;;;5090872;28;20365;-71
2022/08/30 12:49:16;;;;;;;3.58;1.30;;;26.80;39.10;;;;;;5080688;28;20040;-70
2022/08/30 12:51:43;;;;;;;3.33;1.40;;;26.80;39.20;;;;;;5098047;28;20046;-71
2022/08/30 12:54:22;;;;;;;3.53;1.40;;;26.70;39.20;;;;;;5098414;28;20107;-70
2022/08/30 12:56:58;;;;;;;2.67;1.35;;;26.70;39.20;;;;;;5080479;28;20043;-70
2022/08/30 12:59:47;;;;;;;2.95;1.25;;;26.60;39.10;;;;;;5080031;28;20039;-71
2022/08/30 13:02:22;;;;;;;3.65;1.38;;;26.60;39.00;;;;;;5087930;28;20074;-70
2022/08/30 13:04:49;;;;;;;4.03;1.25;;;26.50;39.10;;;;;;5060914;28;20024;-70
2022/08/30 13:07:30;;;;;;;4.53;1.38;;;26.50;39.20;;;;;;5085651;28;20445;-70
2022/08/30 13:10:04;;;;;;;2.88;1.30;;;26.50;39.20;;;;;;5082386;28;20103;-71
2022/08/30 13:12:30;;;;;;;3.53;1.42;;;26.40;39.30;;;;;;5056598;28;20065;-71
2022/08/30 13:15:18;;;;;;;2.83;1.30;;;26.40;39.20;;;;;;5092726;28;20124;-70
2022/08/30 13:17:44;;;;;;;3.00;1.27;;;26.30;39.10;;;;;;5078730;28;20032;-70